sensor_id;sensor_type;location;lat;lon;timestamp;P1;durP1;ratioP1;P2;durP2;ratioP2
64282;SDS011;50497;50.720;-2.084;2022-08-11T00:00:41;10.02;;;6.90;;
64282;SDS011;50497;50.720;-2.084;2022-08-11T00:03:11;11.35;;;6.78;;
64282;SDS011;50497;50.720;-2.084;2022-08-11T00:08:09;10.15;;;6.68;;
64282;SDS011;50497;50.720;-2.084;2022-08-11T00:10:45;10.85;;;7.45;;
64282;SDS011;50497;50.720;-2.084;2022-08-11T00:13:17;10.52;;;6.60;;
64282;SDS011;50497;50.720;-2.084;2022-08-11T00:15:47;10.15;;;6.85;;
64282;SDS011;50497;50.720;-2.084;2022-08-11T00:18:14;11.35;;;7.78;;
64282;SDS011;50497;50.720;-2.084;2022-08-11T00:20:47;10.73;;;6.72;;
64282;SDS011;50497;50.720;-2.084;2022-08-11T00:23:15;10.70;;;6.60;;
64282;SDS011;50497;50.720;-2.084;2022-08-11T00:25:46;9.88;;;7.25;;
64282;SDS011;50497;50.720;-2.084;2022-08-11T00:30:58;9.63;;;7.03;;
64282;SDS011;50497;50.720;-2.084;2022-08-11T00:33:32;10.32;;;7.38;;
64282;SDS011;50497;50.720;-2.084;2022-08-11T00:36:09;9.80;;;6.78;;
64282;SDS011;50497;50.720;-2.084;2022-08-11T00:38:41;10.63;;;6.78;;
64282;SDS011;50497;50.720;-2.084;2022-08-11T00:49:33;11.05;;;6.88;;
64282;SDS011;50497;50.720;-2.084;2022-08-11T01:00:19;13.68;;;7.20;;
64282;SDS011;50497;50.720;-2.084;2022-08-11T01:03:14;10.00;;;7.00;;
64282;SDS011;50497;50.720;-2.084;2022-08-11T01:05:58;9.60;;;6.82;;
64282;SDS011;50497;50.720;-2.084;2022-08-11T01:08:43;11.27;;;7.00;;
64282;SDS011;50497;50.720;-2.084;2022-08-11T01:20:02;9.85;;;6.57;;
64282;SDS011;50497;50.720;-2.084;2022-08-11T01:22:57;9.77;;;6.55;;
64282;SDS011;50497;50.720;-2.084;2022-08-11T01:31:55;11.48;;;6.60;;
64282;SDS011;50497;50.720;-2.084;2022-08-11T01:46:00;11.52;;;6.65;;
64282;SDS011;50497;50.720;-2.084;2022-08-11T01:48:30;9.40;;;6.40;;
64282;SDS011;50497;50.720;-2.084;2022-08-11T01:59:07;11.48;;;6.63;;
64282;SDS011;50497;50.720;-2.084;2022-08-11T02:07:57;10.02;;;6.10;;
64282;SDS011;50497;50.720;-2.084;2022-08-11T02:10:37;9.25;;;6.32;;
64282;SDS011;50497;50.720;-2.084;2022-08-11T02:18:52;10.45;;;6.05;;
64282;SDS011;50497;50.720;-2.084;2022-08-11T02:21:51;10.98;;;5.82;;
64282;SDS011;50497;50.720;-2.084;2022-08-11T02:24:44;10.68;;;6.40;;
64282;SDS011;50497;50.720;-2.084;2022-08-11T02:27:21;10.70;;;6.40;;
64282;SDS011;50497;50.720;-2.084;2022-08-11T02:29:58;10.65;;;6.65;;
64282;SDS011;50497;50.720;-2.084;2022-08-11T02:35:57;9.63;;;6.00;;
64282;SDS011;50497;50.720;-2.084;2022-08-11T02:38:36;9.40;;;5.68;;
64282;SDS011;50497;50.720;-2.084;2022-08-11T02:49:25;10.32;;;5.43;;
64282;SDS011;50497;50.720;-2.084;2022-08-11T02:52:22;10.00;;;5.95;;
64282;SDS011;50497;50.720;-2.084;2022-08-11T02:57:32;9.07;;;5.65;;
64282;SDS011;50497;50.720;-2.084;2022-08-11T03:00:07;8.40;;;5.30;;
64282;SDS011;50497;50.720;-2.084;2022-08-11T03:16:53;9.75;;;5.50;;
64282;SDS011;50497;50.720;-2.084;2022-08-11T03:25:14;8.48;;;5.10;;
64282;SDS011;50497;50.720;-2.084;2022-08-11T03:28:13;8.13;;;5.18;;
64282;SDS011;50497;50.720;-2.084;2022-08-11T03:33:47;7.82;;;4.70;;
64282;SDS011;50497;50.720;-2.084;2022-08-11T03:45:55;11.10;;;5.10;;
64282;SDS011;50497;50.720;-2.084;2022-08-11T03:48:48;8.13;;;5.25;;
64282;SDS011;50497;50.720;-2.084;2022-08-11T04:02:54;10.13;;;5.40;;
64282;SDS011;50497;50.720;-2.084;2022-08-11T04:46:56;9.35;;;4.75;;
64282;SDS011;50497;50.720;-2.084;2022-08-11T04:56:16;8.90;;;4.88;;
64282;SDS011;50497;50.720;-2.084;2022-08-11T05:13:26;8.95;;;5.28;;
64282;SDS011;50497;50.720;-2.084;2022-08-11T05:16:16;8.15;;;5.07;;
64282;SDS011;50497;50.720;-2.084;2022-08-11T05:19:04;10.88;;;5.97;;
64282;SDS011;50497;50.720;-2.084;2022-08-11T05:21:53;10.75;;;5.50;;
64282;SDS011;50497;50.720;-2.084;2022-08-11T05:24:43;10.13;;;5.68;;
64282;SDS011;50497;50.720;-2.084;2022-08-11T05:27:32;12.77;;;5.93;;
64282;SDS011;50497;50.720;-2.084;2022-08-11T05:30:28;10.88;;;6.03;;
64282;SDS011;50497;50.720;-2.084;2022-08-11T05:33:24;11.43;;;6.20;;
64282;SDS011;50497;50.720;-2.084;2022-08-11T05:39:01;9.48;;;5.57;;
64282;SDS011;50497;50.720;-2.084;2022-08-11T05:44:47;9.00;;;4.78;;
64282;SDS011;50497;50.720;-2.084;2022-08-11T05:47:36;11.45;;;5.15;;
64282;SDS011;50497;50.720;-2.084;2022-08-11T05:50:21;8.85;;;5.25;;
64282;SDS011;50497;50.720;-2.084;2022-08-11T05:53:11;10.98;;;5.78;;
64282;SDS011;50497;50.720;-2.084;2022-08-11T05:56:03;11.60;;;5.65;;
64282;SDS011;50497;50.720;-2.084;2022-08-11T05:58:49;11.65;;;5.85;;
64282;SDS011;50497;50.720;-2.084;2022-08-11T06:01:23;10.75;;;5.10;;
64282;SDS011;50497;50.720;-2.084;2022-08-11T06:03:54;7.70;;;4.70;;
64282;SDS011;50497;50.720;-2.084;2022-08-11T06:12:22;9.20;;;4.90;;
64282;SDS011;50497;50.720;-2.084;2022-08-11T06:14:53;10.35;;;5.00;;
64282;SDS011;50497;50.720;-2.084;2022-08-11T06:17:23;8.88;;;4.90;;
64282;SDS011;50497;50.720;-2.084;2022-08-11T06:19:50;10.63;;;4.57;;
64282;SDS011;50497;50.720;-2.084;2022-08-11T06:22:23;8.73;;;5.07;;
64282;SDS011;50497;50.720;-2.084;2022-08-11T06:24:55;10.32;;;4.95;;
64282;SDS011;50497;50.720;-2.084;2022-08-11T06:27:29;9.75;;;4.95;;
64282;SDS011;50497;50.720;-2.084;2022-08-11T06:29:57;8.80;;;5.40;;
64282;SDS011;50497;50.720;-2.084;2022-08-11T06:32:31;8.95;;;4.97;;
64282;SDS011;50497;50.720;-2.084;2022-08-11T06:37:59;8.02;;;4.72;;
64282;SDS011;50497;50.720;-2.084;2022-08-11T06:43:50;8.02;;;4.85;;
64282;SDS011;50497;50.720;-2.084;2022-08-11T06:46:28;8.65;;;4.82;;
64282;SDS011;50497;50.720;-2.084;2022-08-11T06:49:02;8.48;;;5.15;;
64282;SDS011;50497;50.720;-2.084;2022-08-11T06:51:28;11.00;;;5.40;;
64282;SDS011;50497;50.720;-2.084;2022-08-11T06:53:56;8.30;;;5.20;;
64282;SDS011;50497;50.720;-2.084;2022-08-11T06:56:25;9.55;;;5.03;;
64282;SDS011;50497;50.720;-2.084;2022-08-11T06:59:12;9.15;;;5.45;;
64282;SDS011;50497;50.720;-2.084;2022-08-11T07:04:40;8.63;;;5.00;;
64282;SDS011;50497;50.720;-2.084;2022-08-11T07:13:44;9.88;;;4.65;;
64282;SDS011;50497;50.720;-2.084;2022-08-11T07:16:30;9.70;;;4.70;;
64282;SDS011;50497;50.720;-2.084;2022-08-11T07:19:01;8.40;;;4.43;;
64282;SDS011;50497;50.720;-2.084;2022-08-11T07:21:52;8.10;;;4.13;;
64282;SDS011;50497;50.720;-2.084;2022-08-11T07:27:41;8.38;;;4.10;;
64282;SDS011;50497;50.720;-2.084;2022-08-11T07:30:28;7.25;;;4.00;;
64282;SDS011;50497;50.720;-2.084;2022-08-11T07:32:57;6.90;;;4.18;;
64282;SDS011;50497;50.720;-2.084;2022-08-11T07:35:35;7.68;;;3.85;;
64282;SDS011;50497;50.720;-2.084;2022-08-11T07:38:31;6.90;;;3.90;;
64282;SDS011;50497;50.720;-2.084;2022-08-11T07:41:14;6.80;;;4.10;;
64282;SDS011;50497;50.720;-2.084;2022-08-11T07:43:41;7.25;;;4.05;;
64282;SDS011;50497;50.720;-2.084;2022-08-11T07:46:13;7.10;;;4.13;;
64282;SDS011;50497;50.720;-2.084;2022-08-11T07:49:02;8.50;;;3.83;;
64282;SDS011;50497;50.720;-2.084;2022-08-11T07:51:49;6.68;;;4.05;;
64282;SDS011;50497;50.720;-2.084;2022-08-11T07:54:36;7.68;;;3.88;;
64282;SDS011;50497;50.720;-2.084;2022-08-11T07:57:08;6.32;;;3.72;;
64282;SDS011;50497;50.720;-2.084;2022-08-11T07:59:52;8.20;;;4.10;;
64282;SDS011;50497;50.720;-2.084;2022-08-11T08:02:39;6.90;;;3.65;;
64282;SDS011;50497;50.720;-2.084;2022-08-11T08:05:25;7.40;;;3.83;;
64282;SDS011;50497;50.720;-2.084;2022-08-11T08:08:11;9.13;;;3.83;;
64282;SDS011;50497;50.720;-2.084;2022-08-11T08:10:57;8.88;;;3.50;;
64282;SDS011;50497;50.720;-2.084;2022-08-11T08:13:42;8.35;;;4.00;;
64282;SDS011;50497;50.720;-2.084;2022-08-11T08:16:27;9.27;;;4.00;;
64282;SDS011;50497;50.720;-2.084;2022-08-11T08:19:14;6.68;;;4.00;;
64282;SDS011;50497;50.720;-2.084;2022-08-11T08:21:41;7.47;;;3.53;;
64282;SDS011;50497;50.720;-2.084;2022-08-11T08:24:11;8.48;;;4.00;;
64282;SDS011;50497;50.720;-2.084;2022-08-11T08:26:38;7.22;;;3.83;;
64282;SDS011;50497;50.720;-2.084;2022-08-11T08:29:24;7.85;;;3.95;;
64282;SDS011;50497;50.720;-2.084;2022-08-11T08:32:13;6.88;;;3.65;;
64282;SDS011;50497;50.720;-2.084;2022-08-11T08:34:40;6.85;;;4.13;;
64282;SDS011;50497;50.720;-2.084;2022-08-11T08:37:13;7.32;;;3.20;;
64282;SDS011;50497;50.720;-2.084;2022-08-11T08:39:43;6.93;;;3.70;;
64282;SDS011;50497;50.720;-2.084;2022-08-11T08:42:17;6.85;;;4.10;;
64282;SDS011;50497;50.720;-2.084;2022-08-11T08:44:49;10.52;;;4.10;;
64282;SDS011;50497;50.720;-2.084;2022-08-11T08:47:19;8.63;;;4.10;;
64282;SDS011;50497;50.720;-2.084;2022-08-11T08:49:51;9.77;;;4.10;;
64282;SDS011;50497;50.720;-2.084;2022-08-11T08:52:24;9.02;;;4.00;;
64282;SDS011;50497;50.720;-2.084;2022-08-11T08:54:59;8.68;;;3.78;;
64282;SDS011;50497;50.720;-2.084;2022-08-11T08:57:31;8.73;;;3.92;;
64282;SDS011;50497;50.720;-2.084;2022-08-11T08:59:58;6.32;;;3.90;;
64282;SDS011;50497;50.720;-2.084;2022-08-11T09:02:30;8.27;;;3.92;;
64282;SDS011;50497;50.720;-2.084;2022-08-11T09:04:59;7.75;;;3.47;;
64282;SDS011;50497;50.720;-2.084;2022-08-11T09:07:26;10.80;;;4.25;;
64282;SDS011;50497;50.720;-2.084;2022-08-11T09:09:56;7.60;;;3.90;;
64282;SDS011;50497;50.720;-2.084;2022-08-11T09:12:28;9.48;;;3.80;;
64282;SDS011;50497;50.720;-2.084;2022-08-11T09:14:58;7.47;;;4.50;;
64282;SDS011;50497;50.720;-2.084;2022-08-11T09:17:35;8.68;;;3.90;;
64282;SDS011;50497;50.720;-2.084;2022-08-11T09:22:36;7.68;;;4.20;;
64282;SDS011;50497;50.720;-2.084;2022-08-11T09:25:24;7.47;;;3.88;;
64282;SDS011;50497;50.720;-2.084;2022-08-11T09:28:11;8.43;;;4.10;;
64282;SDS011;50497;50.720;-2.084;2022-08-11T09:30:43;7.75;;;4.05;;
64282;SDS011;50497;50.720;-2.084;2022-08-11T09:33:12;6.63;;;3.92;;
64282;SDS011;50497;50.720;-2.084;2022-08-11T09:35:39;5.80;;;3.83;;
64282;SDS011;50497;50.720;-2.084;2022-08-11T09:38:12;7.18;;;4.20;;
64282;SDS011;50497;50.720;-2.084;2022-08-11T09:40:58;6.85;;;3.80;;
64282;SDS011;50497;50.720;-2.084;2022-08-11T09:43:32;8.85;;;4.20;;
64282;SDS011;50497;50.720;-2.084;2022-08-11T09:46:26;7.55;;;4.07;;
64282;SDS011;50497;50.720;-2.084;2022-08-11T09:48:57;6.80;;;4.18;;
64282;SDS011;50497;50.720;-2.084;2022-08-11T09:51:25;7.35;;;4.28;;
64282;SDS011;50497;50.720;-2.084;2022-08-11T09:53:55;7.88;;;4.20;;
64282;SDS011;50497;50.720;-2.084;2022-08-11T09:56:23;8.07;;;4.18;;
64282;SDS011;50497;50.720;-2.084;2022-08-11T09:59:08;7.55;;;4.35;;
64282;SDS011;50497;50.720;-2.084;2022-08-11T10:01:42;6.63;;;4.15;;
64282;SDS011;50497;50.720;-2.084;2022-08-11T10:04:17;6.47;;;4.10;;
64282;SDS011;50497;50.720;-2.084;2022-08-11T10:06:51;8.13;;;4.40;;
64282;SDS011;50497;50.720;-2.084;2022-08-11T10:09:33;9.77;;;4.20;;
64282;SDS011;50497;50.720;-2.084;2022-08-11T10:12:00;7.05;;;3.90;;
64282;SDS011;50497;50.720;-2.084;2022-08-11T10:14:30;7.97;;;4.50;;
64282;SDS011;50497;50.720;-2.084;2022-08-11T10:17:21;8.13;;;4.70;;
64282;SDS011;50497;50.720;-2.084;2022-08-11T10:19:51;6.72;;;4.28;;
64282;SDS011;50497;50.720;-2.084;2022-08-11T10:22:21;11.75;;;4.53;;
64282;SDS011;50497;50.720;-2.084;2022-08-11T10:25:15;5.60;;;4.30;;
64282;SDS011;50497;50.720;-2.084;2022-08-11T10:28:06;7.45;;;4.20;;
64282;SDS011;50497;50.720;-2.084;2022-08-11T10:30:40;7.18;;;4.25;;
64282;SDS011;50497;50.720;-2.084;2022-08-11T10:33:33;7.13;;;4.50;;
64282;SDS011;50497;50.720;-2.084;2022-08-11T10:36:22;8.57;;;4.60;;
64282;SDS011;50497;50.720;-2.084;2022-08-11T10:38:49;6.95;;;4.32;;
64282;SDS011;50497;50.720;-2.084;2022-08-11T10:41:16;7.70;;;4.40;;
64282;SDS011;50497;50.720;-2.084;2022-08-11T10:44:02;7.30;;;4.55;;
64282;SDS011;50497;50.720;-2.084;2022-08-11T10:46:30;6.10;;;4.35;;
64282;SDS011;50497;50.720;-2.084;2022-08-11T10:49:14;8.18;;;4.20;;
64282;SDS011;50497;50.720;-2.084;2022-08-11T10:51:44;6.15;;;4.28;;
64282;SDS011;50497;50.720;-2.084;2022-08-11T10:54:29;8.10;;;4.45;;
64282;SDS011;50497;50.720;-2.084;2022-08-11T10:57:18;7.40;;;4.43;;
64282;SDS011;50497;50.720;-2.084;2022-08-11T11:00:09;10.00;;;4.60;;
64282;SDS011;50497;50.720;-2.084;2022-08-11T11:02:40;6.65;;;4.13;;
64282;SDS011;50497;50.720;-2.084;2022-08-11T11:05:15;6.85;;;4.45;;
64282;SDS011;50497;50.720;-2.084;2022-08-11T11:11:16;6.78;;;4.38;;
64282;SDS011;50497;50.720;-2.084;2022-08-11T11:13:52;7.68;;;4.43;;
64282;SDS011;50497;50.720;-2.084;2022-08-11T11:16:37;7.55;;;4.50;;
64282;SDS011;50497;50.720;-2.084;2022-08-11T11:19:24;8.55;;;4.10;;
64282;SDS011;50497;50.720;-2.084;2022-08-11T11:21:59;8.57;;;4.47;;
64282;SDS011;50497;50.720;-2.084;2022-08-11T11:25:00;8.00;;;4.80;;
64282;SDS011;50497;50.720;-2.084;2022-08-11T11:39:26;8.68;;;4.90;;
64282;SDS011;50497;50.720;-2.084;2022-08-11T11:41:58;8.43;;;4.95;;
64282;SDS011;50497;50.720;-2.084;2022-08-11T11:44:28;7.55;;;4.93;;
64282;SDS011;50497;50.720;-2.084;2022-08-11T11:46:59;8.57;;;4.95;;
64282;SDS011;50497;50.720;-2.084;2022-08-11T11:49:26;7.07;;;4.60;;
64282;SDS011;50497;50.720;-2.084;2022-08-11T11:52:13;7.63;;;4.63;;
64282;SDS011;50497;50.720;-2.084;2022-08-11T11:54:47;7.82;;;4.53;;
64282;SDS011;50497;50.720;-2.084;2022-08-11T11:57:17;6.57;;;4.90;;
64282;SDS011;50497;50.720;-2.084;2022-08-11T12:00:10;7.72;;;4.68;;
64282;SDS011;50497;50.720;-2.084;2022-08-11T12:02:59;16.88;;;5.05;;
64282;SDS011;50497;50.720;-2.084;2022-08-11T12:05:32;7.43;;;4.65;;
64282;SDS011;50497;50.720;-2.084;2022-08-11T12:08:07;8.98;;;5.15;;
64282;SDS011;50497;50.720;-2.084;2022-08-11T12:10:48;9.23;;;4.70;;
64282;SDS011;50497;50.720;-2.084;2022-08-11T12:13:43;8.45;;;4.82;;
64282;SDS011;50497;50.720;-2.084;2022-08-11T12:16:11;8.73;;;4.53;;
64282;SDS011;50497;50.720;-2.084;2022-08-11T12:18:41;8.63;;;4.60;;
64282;SDS011;50497;50.720;-2.084;2022-08-11T12:21:10;6.88;;;4.72;;
64282;SDS011;50497;50.720;-2.084;2022-08-11T12:23:38;7.22;;;4.35;;
64282;SDS011;50497;50.720;-2.084;2022-08-11T12:26:23;8.20;;;4.60;;
64282;SDS011;50497;50.720;-2.084;2022-08-11T12:29:09;7.75;;;4.40;;
64282;SDS011;50497;50.720;-2.084;2022-08-11T12:31:39;12.73;;;4.97;;
64282;SDS011;50497;50.720;-2.084;2022-08-11T12:34:07;7.32;;;4.45;;
64282;SDS011;50497;50.720;-2.084;2022-08-11T12:36:34;7.50;;;4.35;;
64282;SDS011;50497;50.720;-2.084;2022-08-11T12:39:05;6.68;;;4.45;;
64282;SDS011;50497;50.720;-2.084;2022-08-11T12:41:45;6.22;;;4.20;;
64282;SDS011;50497;50.720;-2.084;2022-08-11T12:44:30;6.28;;;4.20;;
64282;SDS011;50497;50.720;-2.084;2022-08-11T12:47:18;6.65;;;4.30;;
64282;SDS011;50497;50.720;-2.084;2022-08-11T12:49:48;6.55;;;4.32;;
64282;SDS011;50497;50.720;-2.084;2022-08-11T12:52:43;7.50;;;4.32;;
64282;SDS011;50497;50.720;-2.084;2022-08-11T12:55:22;7.93;;;4.55;;
64282;SDS011;50497;50.720;-2.084;2022-08-11T12:58:15;7.25;;;4.63;;
64282;SDS011;50497;50.720;-2.084;2022-08-11T13:00:45;7.90;;;4.57;;
64282;SDS011;50497;50.720;-2.084;2022-08-11T13:03:34;6.93;;;4.40;;
64282;SDS011;50497;50.720;-2.084;2022-08-11T13:06:24;7.75;;;4.38;;
64282;SDS011;50497;50.720;-2.084;2022-08-11T13:08:58;7.47;;;4.40;;
64282;SDS011;50497;50.720;-2.084;2022-08-11T13:11:31;7.90;;;4.60;;
64282;SDS011;50497;50.720;-2.084;2022-08-11T13:14:19;6.82;;;4.40;;
64282;SDS011;50497;50.720;-2.084;2022-08-11T13:16:49;6.82;;;4.72;;
64282;SDS011;50497;50.720;-2.084;2022-08-11T13:19:39;7.25;;;4.25;;
64282;SDS011;50497;50.720;-2.084;2022-08-11T13:22:07;6.80;;;4.63;;
64282;SDS011;50497;50.720;-2.084;2022-08-11T13:24:37;7.70;;;4.65;;
64282;SDS011;50497;50.720;-2.084;2022-08-11T13:27:15;8.18;;;4.70;;
64282;SDS011;50497;50.720;-2.084;2022-08-11T13:29:42;8.35;;;4.63;;
64282;SDS011;50497;50.720;-2.084;2022-08-11T13:32:34;6.88;;;3.92;;
64282;SDS011;50497;50.720;-2.084;2022-08-11T13:35:09;7.60;;;4.75;;
64282;SDS011;50497;50.720;-2.084;2022-08-11T13:37:40;6.80;;;4.65;;
64282;SDS011;50497;50.720;-2.084;2022-08-11T13:40:15;7.10;;;4.40;;
64282;SDS011;50497;50.720;-2.084;2022-08-11T13:42:50;7.63;;;4.78;;
64282;SDS011;50497;50.720;-2.084;2022-08-11T13:45:17;8.80;;;5.40;;
64282;SDS011;50497;50.720;-2.084;2022-08-11T13:48:00;8.80;;;4.60;;
64282;SDS011;50497;50.720;-2.084;2022-08-11T13:50:31;11.15;;;4.55;;
64282;SDS011;50497;50.720;-2.084;2022-08-11T13:53:21;8.02;;;4.65;;
64282;SDS011;50497;50.720;-2.084;2022-08-11T13:55:49;7.22;;;4.70;;
64282;SDS011;50497;50.720;-2.084;2022-08-11T13:58:19;7.60;;;5.03;;
64282;SDS011;50497;50.720;-2.084;2022-08-11T14:00:50;8.40;;;4.35;;
64282;SDS011;50497;50.720;-2.084;2022-08-11T14:03:22;8.07;;;4.40;;
64282;SDS011;50497;50.720;-2.084;2022-08-11T14:05:53;6.50;;;4.50;;
64282;SDS011;50497;50.720;-2.084;2022-08-11T14:08:31;7.63;;;4.43;;
64282;SDS011;50497;50.720;-2.084;2022-08-11T14:11:08;7.88;;;4.82;;
64282;SDS011;50497;50.720;-2.084;2022-08-11T14:13:53;8.40;;;4.85;;
64282;SDS011;50497;50.720;-2.084;2022-08-11T14:16:26;6.55;;;4.60;;
64282;SDS011;50497;50.720;-2.084;2022-08-11T14:19:04;9.93;;;4.80;;
64282;SDS011;50497;50.720;-2.084;2022-08-11T14:21:37;10.10;;;4.82;;
64282;SDS011;50497;50.720;-2.084;2022-08-11T14:24:25;10.98;;;5.00;;
64282;SDS011;50497;50.720;-2.084;2022-08-11T14:27:00;8.60;;;4.75;;
64282;SDS011;50497;50.720;-2.084;2022-08-11T14:29:33;8.73;;;4.68;;
64282;SDS011;50497;50.720;-2.084;2022-08-11T14:32:07;9.82;;;4.50;;
64282;SDS011;50497;50.720;-2.084;2022-08-11T14:34:38;6.15;;;4.38;;
64282;SDS011;50497;50.720;-2.084;2022-08-11T14:39:46;7.95;;;4.35;;
64282;SDS011;50497;50.720;-2.084;2022-08-11T14:42:20;7.47;;;4.00;;
64282;SDS011;50497;50.720;-2.084;2022-08-11T14:45:10;6.63;;;4.13;;
64282;SDS011;50497;50.720;-2.084;2022-08-11T14:48:00;7.15;;;4.00;;
64282;SDS011;50497;50.720;-2.084;2022-08-11T14:50:32;6.47;;;3.70;;
64282;SDS011;50497;50.720;-2.084;2022-08-11T14:53:00;7.13;;;4.00;;
64282;SDS011;50497;50.720;-2.084;2022-08-11T14:55:38;8.20;;;4.30;;
64282;SDS011;50497;50.720;-2.084;2022-08-11T14:58:26;6.70;;;4.07;;
64282;SDS011;50497;50.720;-2.084;2022-08-11T15:00:56;7.28;;;4.28;;
64282;SDS011;50497;50.720;-2.084;2022-08-11T15:03:26;7.50;;;4.07;;
64282;SDS011;50497;50.720;-2.084;2022-08-11T15:06:01;8.43;;;4.10;;
64282;SDS011;50497;50.720;-2.084;2022-08-11T15:08:34;6.53;;;4.18;;
64282;SDS011;50497;50.720;-2.084;2022-08-11T15:11:22;7.65;;;4.00;;
64282;SDS011;50497;50.720;-2.084;2022-08-11T15:14:14;8.57;;;4.10;;
64282;SDS011;50497;50.720;-2.084;2022-08-11T15:17:03;7.55;;;4.15;;
64282;SDS011;50497;50.720;-2.084;2022-08-11T15:19:42;6.20;;;3.78;;
64282;SDS011;50497;50.720;-2.084;2022-08-11T15:22:39;6.30;;;3.55;;
64282;SDS011;50497;50.720;-2.084;2022-08-11T15:25:34;9.05;;;4.00;;
64282;SDS011;50497;50.720;-2.084;2022-08-11T15:28:01;6.47;;;3.63;;
64282;SDS011;50497;50.720;-2.084;2022-08-11T15:30:52;6.72;;;3.88;;
64282;SDS011;50497;50.720;-2.084;2022-08-11T15:33:39;6.22;;;4.00;;
64282;SDS011;50497;50.720;-2.084;2022-08-11T15:36:29;5.95;;;3.88;;
64282;SDS011;50497;50.720;-2.084;2022-08-11T15:39:23;6.32;;;3.90;;
64282;SDS011;50497;50.720;-2.084;2022-08-11T15:44:50;6.28;;;3.95;;
64282;SDS011;50497;50.720;-2.084;2022-08-11T15:47:48;6.88;;;3.90;;
64282;SDS011;50497;50.720;-2.084;2022-08-11T15:50:24;5.65;;;3.60;;
64282;SDS011;50497;50.720;-2.084;2022-08-11T15:53:19;5.53;;;3.60;;
64282;SDS011;50497;50.720;-2.084;2022-08-11T15:55:55;10.82;;;4.15;;
64282;SDS011;50497;50.720;-2.084;2022-08-11T15:58:26;7.30;;;3.80;;
64282;SDS011;50497;50.720;-2.084;2022-08-11T16:01:23;6.03;;;3.63;;
64282;SDS011;50497;50.720;-2.084;2022-08-11T16:04:09;6.10;;;3.58;;
64282;SDS011;50497;50.720;-2.084;2022-08-11T16:06:55;6.43;;;3.58;;
64282;SDS011;50497;50.720;-2.084;2022-08-11T16:09:29;7.20;;;3.78;;
64282;SDS011;50497;50.720;-2.084;2022-08-11T16:11:59;5.82;;;3.60;;
64282;SDS011;50497;50.720;-2.084;2022-08-11T16:14:33;6.43;;;3.50;;
64282;SDS011;50497;50.720;-2.084;2022-08-11T16:17:23;6.53;;;3.53;;
64282;SDS011;50497;50.720;-2.084;2022-08-11T16:19:55;7.68;;;3.70;;
64282;SDS011;50497;50.720;-2.084;2022-08-11T16:22:24;7.72;;;3.60;;
64282;SDS011;50497;50.720;-2.084;2022-08-11T16:25:07;6.30;;;3.67;;
64282;SDS011;50497;50.720;-2.084;2022-08-11T16:27:38;5.45;;;3.50;;
64282;SDS011;50497;50.720;-2.084;2022-08-11T16:30:14;6.47;;;3.70;;
64282;SDS011;50497;50.720;-2.084;2022-08-11T16:32:44;8.88;;;3.85;;
64282;SDS011;50497;50.720;-2.084;2022-08-11T16:35:22;7.75;;;3.85;;
64282;SDS011;50497;50.720;-2.084;2022-08-11T16:38:08;6.65;;;3.88;;
64282;SDS011;50497;50.720;-2.084;2022-08-11T16:40:55;7.10;;;3.90;;
64282;SDS011;50497;50.720;-2.084;2022-08-11T16:43:28;7.93;;;3.90;;
64282;SDS011;50497;50.720;-2.084;2022-08-11T16:46:18;8.02;;;4.03;;
64282;SDS011;50497;50.720;-2.084;2022-08-11T16:49:05;7.60;;;3.97;;
64282;SDS011;50497;50.720;-2.084;2022-08-11T16:51:42;7.22;;;4.32;;
64282;SDS011;50497;50.720;-2.084;2022-08-11T16:54:14;8.88;;;3.92;;
64282;SDS011;50497;50.720;-2.084;2022-08-11T16:56:41;8.40;;;4.10;;
64282;SDS011;50497;50.720;-2.084;2022-08-11T16:59:25;6.45;;;4.20;;
64282;SDS011;50497;50.720;-2.084;2022-08-11T17:05:05;5.97;;;3.90;;
64282;SDS011;50497;50.720;-2.084;2022-08-11T17:07:57;6.45;;;3.85;;
64282;SDS011;50497;50.720;-2.084;2022-08-11T17:10:47;7.65;;;3.95;;
64282;SDS011;50497;50.720;-2.084;2022-08-11T17:16:31;8.05;;;4.13;;
64282;SDS011;50497;50.720;-2.084;2022-08-11T17:19:00;5.72;;;3.50;;
64282;SDS011;50497;50.720;-2.084;2022-08-11T17:21:43;6.47;;;3.60;;
64282;SDS011;50497;50.720;-2.084;2022-08-11T17:24:30;6.60;;;3.72;;
64282;SDS011;50497;50.720;-2.084;2022-08-11T17:27:02;6.93;;;3.90;;
64282;SDS011;50497;50.720;-2.084;2022-08-11T17:29:39;7.15;;;3.78;;
64282;SDS011;50497;50.720;-2.084;2022-08-11T17:32:12;6.45;;;4.20;;
64282;SDS011;50497;50.720;-2.084;2022-08-11T17:35:04;7.50;;;4.03;;
64282;SDS011;50497;50.720;-2.084;2022-08-11T17:37:52;6.72;;;3.90;;
64282;SDS011;50497;50.720;-2.084;2022-08-11T17:40:24;6.57;;;3.70;;
64282;SDS011;50497;50.720;-2.084;2022-08-11T17:42:53;7.82;;;3.72;;
64282;SDS011;50497;50.720;-2.084;2022-08-11T17:45:39;7.28;;;3.72;;
64282;SDS011;50497;50.720;-2.084;2022-08-11T17:48:27;6.47;;;3.80;;
64282;SDS011;50497;50.720;-2.084;2022-08-11T17:50:55;7.43;;;4.00;;
64282;SDS011;50497;50.720;-2.084;2022-08-11T17:53:24;7.88;;;4.45;;
64282;SDS011;50497;50.720;-2.084;2022-08-11T17:56:10;7.82;;;4.10;;
64282;SDS011;50497;50.720;-2.084;2022-08-11T17:58:58;8.23;;;3.95;;
64282;SDS011;50497;50.720;-2.084;2022-08-11T18:01:44;7.53;;;4.00;;
64282;SDS011;50497;50.720;-2.084;2022-08-11T18:04:13;7.10;;;4.15;;
64282;SDS011;50497;50.720;-2.084;2022-08-11T18:06:40;7.45;;;4.30;;
64282;SDS011;50497;50.720;-2.084;2022-08-11T18:09:14;6.95;;;4.13;;
64282;SDS011;50497;50.720;-2.084;2022-08-11T18:12:02;8.40;;;4.32;;
64282;SDS011;50497;50.720;-2.084;2022-08-11T18:14:49;8.98;;;4.00;;
64282;SDS011;50497;50.720;-2.084;2022-08-11T18:17:34;7.05;;;4.03;;
64282;SDS011;50497;50.720;-2.084;2022-08-11T18:20:23;8.38;;;4.35;;
64282;SDS011;50497;50.720;-2.084;2022-08-11T18:23:09;8.30;;;4.30;;
64282;SDS011;50497;50.720;-2.084;2022-08-11T18:28:47;7.15;;;4.03;;
64282;SDS011;50497;50.720;-2.084;2022-08-11T18:31:40;7.75;;;4.10;;
64282;SDS011;50497;50.720;-2.084;2022-08-11T18:34:35;7.47;;;4.10;;
64282;SDS011;50497;50.720;-2.084;2022-08-11T18:37:27;6.35;;;4.07;;
64282;SDS011;50497;50.720;-2.084;2022-08-11T18:40:21;7.35;;;4.00;;
64282;SDS011;50497;50.720;-2.084;2022-08-11T18:43:14;7.70;;;4.00;;
64282;SDS011;50497;50.720;-2.084;2022-08-11T18:46:05;7.80;;;4.00;;
64282;SDS011;50497;50.720;-2.084;2022-08-11T18:48:54;8.48;;;4.05;;
64282;SDS011;50497;50.720;-2.084;2022-08-11T18:51:50;7.15;;;3.40;;
64282;SDS011;50497;50.720;-2.084;2022-08-11T18:54:36;6.30;;;4.18;;
64282;SDS011;50497;50.720;-2.084;2022-08-11T18:57:23;6.90;;;4.10;;
64282;SDS011;50497;50.720;-2.084;2022-08-11T19:00:09;7.85;;;4.38;;
64282;SDS011;50497;50.720;-2.084;2022-08-11T19:02:58;5.60;;;3.88;;
64282;SDS011;50497;50.720;-2.084;2022-08-11T19:05:45;6.88;;;4.05;;
64282;SDS011;50497;50.720;-2.084;2022-08-11T19:08:34;7.75;;;4.32;;
64282;SDS011;50497;50.720;-2.084;2022-08-11T19:11:23;6.22;;;4.20;;
64282;SDS011;50497;50.720;-2.084;2022-08-11T19:14:09;7.57;;;4.25;;
64282;SDS011;50497;50.720;-2.084;2022-08-11T19:16:58;7.57;;;4.32;;
64282;SDS011;50497;50.720;-2.084;2022-08-11T19:19:44;6.78;;;4.35;;
64282;SDS011;50497;50.720;-2.084;2022-08-11T19:22:30;6.88;;;4.15;;
64282;SDS011;50497;50.720;-2.084;2022-08-11T19:25:16;6.40;;;4.30;;
64282;SDS011;50497;50.720;-2.084;2022-08-11T19:28:03;7.53;;;4.25;;
64282;SDS011;50497;50.720;-2.084;2022-08-11T19:30:49;7.15;;;4.30;;
64282;SDS011;50497;50.720;-2.084;2022-08-11T19:33:35;7.07;;;4.30;;
64282;SDS011;50497;50.720;-2.084;2022-08-11T19:36:21;8.23;;;4.63;;
64282;SDS011;50497;50.720;-2.084;2022-08-11T19:39:08;7.30;;;4.22;;
64282;SDS011;50497;50.720;-2.084;2022-08-11T19:41:54;32.88;;;5.93;;
64282;SDS011;50497;50.720;-2.084;2022-08-11T19:44:41;10.13;;;4.80;;
64282;SDS011;50497;50.720;-2.084;2022-08-11T19:47:26;9.73;;;4.55;;
64282;SDS011;50497;50.720;-2.084;2022-08-11T19:50:11;13.18;;;4.85;;
64282;SDS011;50497;50.720;-2.084;2022-08-11T19:52:57;7.20;;;4.53;;
64282;SDS011;50497;50.720;-2.084;2022-08-11T19:55:44;7.47;;;4.60;;